Norman, OK (73019)

1:57 PM CST on December 22, 2014 (GMT -0600)
Rustic Hills | Change Station
CLOSE
Current Station
Personal Weather Station
Location: Norman, OK
Elevation: 1171 ft
Nearby Weather Stations

Elev 1171 ft 35.19 °N, 97.46 °W | Updated 1 minute ago

Clear
Clear
55.7 °F
Feels Like 55.7 °F
N
6.0
Wind Variable Wind from West
Gusts 8.0 mph

Today
High -- | Low -- °F
--% Chance of Precip.
Yesterday
High -- | Low -- °F
Precip. -- in
7:34 AM 5:21 PM
New Moon, 1% visible
Pressure 29.57 in
Visibility 10.0 miles
Clouds Clear
Dew Point 40 °F
Humidity 56%
Rainfall 0.00 in
Snow Depth Not available.
UV 3 out of 12
Pollen 9.30 out of 12
Air Quality Not available.
Flu Activity Not available.
METAR KOUN 221935Z AUTO 31011G17KT 10SM CLR 12/06 A2957 RMK AO2

More Conditions Fewer Conditions

Pressure 29.57 in
Visibility 10.0 miles
Clouds Clear
Dew Point 40 °F
Humidity 56%
Rainfall 0.00 in
Snow Depth Not available.
UV 3 out of 12
Pollen 9.30 out of 12
Air Quality Not available.
Flu Activity Not available.
METAR KOUN 221935Z AUTO 31011G17KT 10SM CLR 12/06 A2957 RMK AO2

More Conditions Fewer Conditions

10-Day Weather Forecast

Almanac

Astronomy

Dec. 22, 2014 Rise Set
Actual Time
Civil Twilight
Nautical Twilight
Astronomical Twilight
Moon
Length of Visible Light
Length of Day
Tomorrow will be .
, % of the Moon is Illuminated

Today's Extremes

State Highs State Lows

Community

WunderPhotos

Upload Photos

1,779,699 photos uploaded!

WunderBlogs® & News

Nearby

Air Quality

  Air Quality AQ Index Pollutant
Not available.

Snow Depth

Station Depth Elevation

Earthquake Activity

City Distance Mag. Time & Date
Minimum magnitude displayed is 2.5.

Coastal Water Temperatures

Place Temperature

Nearby Weather Stations